Time;durP1;ratioP1;P1;durP2;ratioP2;P2;SDS_P1;SDS_P2;PMS_P1;PMS_P2;Temp;Humidity;BMP_temperature;BMP_pressure;BME280_temperature;BME280_humidity;BME280_pressure;Samples;Min_cycle;Max_cycle;Signal;HPM_P1;HPM_P2
2023/08/05 00:01:19;;;;;;;;;;;;;;;;;;2082749;28;19917;-83
2023/08/05 00:02:40;;;;;;;;;;;;;;;;;;2083944;28;19921;-83
2023/08/05 00:04:01;;;;;;;;;;;;;;;;;;2073465;28;19909;-84
2023/08/05 00:05:22;;;;;;;;;;;;;;;;;;2074431;28;20357;-82
2023/08/05 00:06:42;;;;;;;;;;;;;;;;;;2079338;28;20209;-82
2023/08/05 00:08:03;;;;;;;;;;;;;;;;;;2076220;28;19924;-83
2023/08/05 00:09:24;;;;;;;;;;;;;;;;;;2083562;28;19909;-83
2023/08/05 00:10:44;;;;;;;;;;;;;;;;;;2074144;28;19910;-81
2023/08/05 00:12:05;;;;;;;;;;;;;;;;;;2073562;28;19910;-82
2023/08/05 00:13:26;;;;;;;;;;;;;;;;;;2074984;28;20316;-83
2023/08/05 00:14:47;;;;;;;;;;;;;;;;;;2079865;28;19917;-84
2023/08/05 00:16:07;;;;;;;;;;;;;;;;;;2080186;28;19910;-83
2023/08/05 00:17:28;;;;;;;;;;;;;;;;;;2073855;28;20288;-83
2023/08/05 00:18:49;;;;;;;;;;;;;;;;;;2074375;28;19909;-84
2023/08/05 00:20:11;;;;;;;;;;;;;;;;;;2072890;28;19909;-83
2023/08/05 00:21:32;;;;;;;;;;;;;;;;;;2084097;28;19924;-84
2023/08/05 00:22:53;;;;;;;;;;;;;;;;;;2084764;28;20013;-83
2023/08/05 00:24:13;;;;;;;;;;;;;;;;;;2082469;28;19916;-84
2023/08/05 00:25:34;;;;;;;;;;;;;;;;;;2079647;28;19967;-83
2023/08/05 00:26:55;;;;;;;;;;;;;;;;;;2082965;28;20288;-83
2023/08/05 00:28:16;;;;;;;;;;;;;;;;;;2082849;28;19916;-84
2023/08/05 00:29:36;;;;;;;;;;;;;;;;;;2084116;28;19909;-84
2023/08/05 00:30:57;;;;;;;;;;;;;;;;;;2079683;28;19920;-84
2023/08/05 00:32:18;;;;;;;;;;;;;;;;;;2089133;28;19909;-84
2023/08/05 00:33:39;;;;;;;;;;;;;;;;;;2090246;28;19908;-83
2023/08/05 00:34:59;;;;;;;;;;;;;;;;;;2088568;28;19920;-85
2023/08/05 00:36:20;;;;;;;;;;;;;;;;;;2078768;28;20272;-84
2023/08/05 00:37:41;;;;;;;;;;;;;;;;;;2079775;28;19916;-85
2023/08/05 00:39:02;;;;;;;;;;;;;;;;;;2084922;28;19935;-84
2023/08/05 00:40:22;;;;;;;;;;;;;;;;;;2089039;28;19913;-83
2023/08/05 00:41:43;;;;;;;;;;;;;;;;;;2081967;28;19913;-84
2023/08/05 00:43:04;;;;;;;;;;;;;;;;;;2083073;28;19913;-82
2023/08/05 00:44:24;;;;;;;;;;;;;;;;;;2082643;28;19916;-82
2023/08/05 00:45:45;;;;;;;;;;;;;;;;;;2082564;28;19928;-83
2023/08/05 00:47:06;;;;;;;;;;;;;;;;;;2081953;28;20368;-83
2023/08/05 00:48:27;;;;;;;;;;;;;;;;;;2083956;28;19913;-84
2023/08/05 00:49:47;;;;;;;;;;;;;;;;;;2080096;28;19932;-83
2023/08/05 00:51:08;;;;;;;;;;;;;;;;;;2074913;28;19918;-84
2023/08/05 00:52:29;;;;;;;;;;;;;;;;;;2075340;28;19940;-85
2023/08/05 00:53:49;;;;;;;;;;;;;;;;;;2074680;28;19920;-84
2023/08/05 00:55:10;;;;;;;;;;;;;;;;;;2073645;28;19917;-83
2023/08/05 00:56:31;;;;;;;;;;;;;;;;;;2080459;28;20411;-85
2023/08/05 00:57:52;;;;;;;;;;;;;;;;;;2072000;28;19920;-85
2023/08/05 00:59:12;;;;;;;;;;;;;;;;;;2074392;28;19913;-84
2023/08/05 01:00:33;;;;;;;;;;;;;;;;;;2080010;28;19913;-84
2023/08/05 01:01:54;;;;;;;;;;;;;;;;;;2077334;28;19917;-86
2023/08/05 01:03:14;;;;;;;;;;;;;;;;;;2075172;28;20360;-85
2023/08/05 01:04:35;;;;;;;;;;;;;;;;;;2076009;28;19921;-85
2023/08/05 01:05:56;;;;;;;;;;;;;;;;;;2074513;28;19928;-84
2023/08/05 01:07:17;;;;;;;;;;;;;;;;;;2072085;28;19917;-85
2023/08/05 01:08:37;;;;;;;;;;;;;;;;;;2075948;28;19913;-86
2023/08/05 01:09:58;;;;;;;;;;;;;;;;;;2073228;28;19921;-85
2023/08/05 01:11:19;;;;;;;;;;;;;;;;;;2078837;28;19972;-82
2023/08/05 01:12:39;;;;;;;;;;;;;;;;;;2079650;28;19913;-84
2023/08/05 01:14:00;;;;;;;;;;;;;;;;;;2080866;28;19916;-82
2023/08/05 01:15:21;;;;;;;;;;;;;;;;;;2078788;28;20376;-84
2023/08/05 01:16:41;;;;;;;;;;;;;;;;;;2080879;28;19909;-81
2023/08/05 01:18:02;;;;;;;;;;;;;;;;;;2079559;28;19913;-85
2023/08/05 01:19:23;;;;;;;;;;;;;;;;;;2080696;28;19916;-80
2023/08/05 01:20:45;;;;;;;;;;;;;;;;;;2079621;28;19932;-85
2023/08/05 01:22:05;;;;;;;;;;;;;;;;;;2079997;28;19913;-84
2023/08/05 01:23:26;;;;;;;;;;;;;;;;;;2081285;28;19917;-85
2023/08/05 01:24:47;;;;;;;;;;;;;;;;;;2074143;28;19925;-84
2023/08/05 01:26:07;;;;;;;;;;;;;;;;;;2081228;28;20376;-84
2023/08/05 01:27:28;;;;;;;;;;;;;;;;;;2075488;28;19936;-84
2023/08/05 01:28:49;;;;;;;;;;;;;;;;;;2071690;28;19936;-84
2023/08/05 01:30:09;;;;;;;;;;;;;;;;;;2080106;28;19956;-84
2023/08/05 01:31:30;;;;;;;;;;;;;;;;;;2081895;28;19932;-85
2023/08/05 01:32:51;;;;;;;;;;;;;;;;;;2083755;28;19909;-84
2023/08/05 01:34:11;;;;;;;;;;;;;;;;;;2082711;28;20462;-85
2023/08/05 01:35:32;;;;;;;;;;;;;;;;;;2082473;28;20005;-85
2023/08/05 01:36:53;;;;;;;;;;;;;;;;;;2083585;28;19909;-85
2023/08/05 01:38:14;;;;;;;;;;;;;;;;;;2083584;28;19932;-85
2023/08/05 01:39:34;;;;;;;;;;;;;;;;;;2083179;28;19909;-85
2023/08/05 01:40:55;;;;;;;;;;;;;;;;;;2082945;28;19909;-85
2023/08/05 01:42:16;;;;;;;;;;;;;;;;;;2082155;28;19917;-85
2023/08/05 01:43:36;;;;;;;;;;;;;;;;;;2082631;28;19983;-85
2023/08/05 01:44:57;;;;;;;;;;;;;;;;;;2082845;28;19916;-81
2023/08/05 01:46:18;;;;;;;;;;;;;;;;;;2083021;28;19912;-85
2023/08/05 01:47:38;;;;;;;;;;;;;;;;;;2082402;28;19963;-84
2023/08/05 01:48:59;;;;;;;;;;;;;;;;;;2080356;28;19909;-84
2023/08/05 01:50:20;;;;;;;;;;;;;;;;;;2079216;28;20383;-85
2023/08/05 01:51:41;;;;;;;;;;;;;;;;;;2082413;28;19909;-84
2023/08/05 01:53:01;;;;;;;;;;;;;;;;;;2081194;28;19909;-85
2023/08/05 01:54:22;;;;;;;;;;;;;;;;;;2071512;28;20448;-85
2023/08/05 01:55:43;;;;;;;;;;;;;;;;;;2071377;28;19922;-85
2023/08/05 01:57:03;;;;;;;;;;;;;;;;;;2077900;28;19913;-86
2023/08/05 01:58:24;;;;;;;;;;;;;;;;;;2082276;28;19909;-85
2023/08/05 01:59:45;;;;;;;;;;;;;;;;;;2088162;28;19909;-86
2023/08/05 02:01:05;;;;;;;;;;;;;;;;;;2085203;28;20349;-83
2023/08/05 02:02:26;;;;;;;;;;;;;;;;;;2082323;28;19917;-85
2023/08/05 02:03:47;;;;;;;;;;;;;;;;;;2081564;28;20310;-84
2023/08/05 02:05:07;;;;;;;;;;;;;;;;;;2087045;28;19897;-84
2023/08/05 02:06:28;;;;;;;;;;;;;;;;;;2082283;28;20357;-84
2023/08/05 02:07:49;;;;;;;;;;;;;;;;;;2087746;28;19920;-85
2023/08/05 02:09:09;;;;;;;;;;;;;;;;;;2084697;28;20246;-84
2023/08/05 02:10:30;;;;;;;;;;;;;;;;;;2081687;28;19909;-84
2023/08/05 02:11:51;;;;;;;;;;;;;;;;;;2082522;28;19909;-84
2023/08/05 02:13:12;;;;;;;;;;;;;;;;;;2083505;28;20404;-85
2023/08/05 02:14:32;;;;;;;;;;;;;;;;;;2082879;28;19920;-86
2023/08/05 02:15:53;;;;;;;;;;;;;;;;;;2082592;28;19929;-83
2023/08/05 02:17:14;;;;;;;;;;;;;;;;;;2082175;28;19909;-85
2023/08/05 02:18:34;;;;;;;;;;;;;;;;;;2083319;28;19909;-85
2023/08/05 02:19:55;;;;;;;;;;;;;;;;;;2083087;28;20015;-84
2023/08/05 02:21:16;;;;;;;;;;;;;;;;;;2083956;28;19909;-85
2023/08/05 02:22:37;;;;;;;;;;;;;;;;;;2079779;28;19913;-86
2023/08/05 02:23:57;;;;;;;;;;;;;;;;;;2076399;28;19913;-83
2023/08/05 02:25:18;;;;;;;;;;;;;;;;;;2086447;28;20395;-86
2023/08/05 02:26:39;;;;;;;;;;;;;;;;;;2075864;28;19980;-85
2023/08/05 02:27:59;;;;;;;;;;;;;;;;;;2079817;28;19910;-85
2023/08/05 02:29:20;;;;;;;;;;;;;;;;;;2085131;28;19924;-85
2023/08/05 02:30:41;;;;;;;;;;;;;;;;;;2078545;28;20000;-86
2023/08/05 02:32:02;;;;;;;;;;;;;;;;;;2073473;28;19910;-84
2023/08/05 02:33:23;;;;;;;;;;;;;;;;;;2070504;28;19979;-85
2023/08/05 02:34:43;;;;;;;;;;;;;;;;;;2072902;28;19909;-83
2023/08/05 02:36:04;;;;;;;;;;;;;;;;;;2070258;28;19918;-86
2023/08/05 02:37:25;;;;;;;;;;;;;;;;;;2072642;28;19917;-84
2023/08/05 02:38:46;;;;;;;;;;;;;;;;;;2070624;28;20369;-86
2023/08/05 02:40:07;;;;;;;;;;;;;;;;;;2077037;28;19917;-84
2023/08/05 02:41:27;;;;;;;;;;;;;;;;;;2074092;28;19909;-86
2023/08/05 02:42:48;;;;;;;;;;;;;;;;;;2075138;28;20317;-85
2023/08/05 02:44:09;;;;;;;;;;;;;;;;;;2070549;28;19910;-84
2023/08/05 02:45:29;;;;;;;;;;;;;;;;;;2075330;28;19913;-84
2023/08/05 02:46:50;;;;;;;;;;;;;;;;;;2073464;28;19910;-85
2023/08/05 02:48:11;;;;;;;;;;;;;;;;;;2079275;28;20412;-83
2023/08/05 02:49:32;;;;;;;;;;;;;;;;;;2074943;28;19917;-86
2023/08/05 02:50:52;;;;;;;;;;;;;;;;;;2088943;28;19941;-84
2023/08/05 02:52:13;;;;;;;;;;;;;;;;;;2087891;28;19929;-86
2023/08/05 02:53:34;;;;;;;;;;;;;;;;;;2084655;28;19908;-85
2023/08/05 02:54:54;;;;;;;;;;;;;;;;;;2083876;28;20276;-83
2023/08/05 02:56:15;;;;;;;;;;;;;;;;;;2078626;28;19924;-84
2023/08/05 02:57:36;;;;;;;;;;;;;;;;;;2081268;28;19916;-81
2023/08/05 02:58:56;;;;;;;;;;;;;;;;;;2086770;28;19909;-86
2023/08/05 03:00:17;;;;;;;;;;;;;;;;;;2084649;28;19909;-85
2023/08/05 03:01:38;;;;;;;;;;;;;;;;;;2079334;28;19916;-85
2023/08/05 03:02:59;;;;;;;;;;;;;;;;;;2081613;28;19960;-85
2023/08/05 03:04:19;;;;;;;;;;;;;;;;;;2081683;28;20415;-86
2023/08/05 03:05:40;;;;;;;;;;;;;;;;;;2083029;28;20262;-85
2023/08/05 03:07:01;;;;;;;;;;;;;;;;;;2089024;28;20387;-85
2023/08/05 03:08:22;;;;;;;;;;;;;;;;;;2084786;28;19916;-85
2023/08/05 03:09:42;;;;;;;;;;;;;;;;;;2088592;28;19913;-85
2023/08/05 03:11:03;;;;;;;;;;;;;;;;;;2084499;28;19913;-86
2023/08/05 03:12:24;;;;;;;;;;;;;;;;;;2080389;28;19920;-83
2023/08/05 03:13:44;;;;;;;;;;;;;;;;;;2090336;28;19912;-85
2023/08/05 03:15:05;;;;;;;;;;;;;;;;;;2083528;28;19910;-85
2023/08/05 03:16:26;;;;;;;;;;;;;;;;;;2089882;28;20233;-86
2023/08/05 03:17:46;;;;;;;;;;;;;;;;;;2093077;28;19908;-82
2023/08/05 03:19:07;;;;;;;;;;;;;;;;;;2090867;28;19909;-85
2023/08/05 03:20:28;;;;;;;;;;;;;;;;;;2083421;28;19925;-84
2023/08/05 03:21:49;;;;;;;;;;;;;;;;;;2084381;28;19909;-85
2023/08/05 03:23:10;;;;;;;;;;;;;;;;;;2082560;28;20427;-84
2023/08/05 03:24:31;;;;;;;;;;;;;;;;;;2076439;28;19918;-86
2023/08/05 03:25:52;;;;;;;;;;;;;;;;;;2071730;28;19913;-85
2023/08/05 03:27:13;;;;;;;;;;;;;;;;;;2072381;28;19917;-86
2023/08/05 03:28:33;;;;;;;;;;;;;;;;;;2072871;28;19913;-83
2023/08/05 03:29:54;;;;;;;;;;;;;;;;;;2081024;28;19960;-83
2023/08/05 03:31:15;;;;;;;;;;;;;;;;;;2076883;28;20289;-85
2023/08/05 03:32:36;;;;;;;;;;;;;;;;;;2083898;28;19909;-85
2023/08/05 03:33:56;;;;;;;;;;;;;;;;;;2078857;28;19909;-86
2023/08/05 03:35:17;;;;;;;;;;;;;;;;;;2083303;28;19932;-83
2023/08/05 03:36:38;;;;;;;;;;;;;;;;;;2078006;28;19924;-82
2023/08/05 03:37:58;;;;;;;;;;;;;;;;;;2074819;28;19913;-84
2023/08/05 03:39:19;;;;;;;;;;;;;;;;;;2076366;28;19919;-82
2023/08/05 03:40:40;;;;;;;;;;;;;;;;;;2075559;28;19909;-85
2023/08/05 03:42:01;;;;;;;;;;;;;;;;;;2075315;28;19909;-83
2023/08/05 03:43:21;;;;;;;;;;;;;;;;;;2072725;28;19914;-85
2023/08/05 03:44:42;;;;;;;;;;;;;;;;;;2074034;28;19910;-86
2023/08/05 03:46:03;;;;;;;;;;;;;;;;;;2082786;28;19920;-85
2023/08/05 03:47:24;;;;;;;;;;;;;;;;;;2088553;28;19909;-85
2023/08/05 03:48:44;;;;;;;;;;;;;;;;;;2083755;28;19917;-86
2023/08/05 03:50:05;;;;;;;;;;;;;;;;;;2086158;28;19916;-85
2023/08/05 03:51:27;;;;;;;;;;;;;;;;;;2090698;28;19909;-85
2023/08/05 03:52:48;;;;;;;;;;;;;;;;;;2089222;28;19909;-85
2023/08/05 03:54:08;;;;;;;;;;;;;;;;;;2079046;28;19913;-86
2023/08/05 03:55:29;;;;;;;;;;;;;;;;;;2080376;28;19928;-86
2023/08/05 03:56:51;;;;;;;;;;;;;;;;;;2082381;28;20347;-85
2023/08/05 03:58:11;;;;;;;;;;;;;;;;;;2080222;28;19913;-86
2023/08/05 03:59:32;;;;;;;;;;;;;;;;;;2087554;28;19916;-85
2023/08/05 04:00:53;;;;;;;;;;;;;;;;;;2084203;28;19925;-86
2023/08/05 04:02:14;;;;;;;;;;;;;;;;;;2087778;28;19913;-87
2023/08/05 04:03:36;;;;;;;;;;;;;;;;;;2082029;28;20388;-86
2023/08/05 04:04:57;;;;;;;;;;;;;;;;;;2088178;28;19916;-86
2023/08/05 04:06:20;;;;;;;;;;;;;;;;;;2081422;28;19920;-87
2023/08/05 04:07:41;;;;;;;;;;;;;;;;;;2081497;28;19928;-84
2023/08/05 04:09:02;;;;;;;;;;;;;;;;;;2089222;28;19916;-85
2023/08/05 04:10:22;;;;;;;;;;;;;;;;;;2092887;28;19908;-85
2023/08/05 04:11:43;;;;;;;;;;;;;;;;;;2091557;28;19920;-86
2023/08/05 04:13:04;;;;;;;;;;;;;;;;;;2092563;28;19912;-86
2023/08/05 04:14:25;;;;;;;;;;;;;;;;;;2081808;28;19910;-85
2023/08/05 04:15:46;;;;;;;;;;;;;;;;;;2080990;28;19920;-86
2023/08/05 04:17:08;;;;;;;;;;;;;;;;;;2093322;28;19932;-86
2023/08/05 04:18:29;;;;;;;;;;;;;;;;;;2092767;28;20028;-85
2023/08/05 04:19:50;;;;;;;;;;;;;;;;;;2086809;28;20392;-84
2023/08/05 04:21:11;;;;;;;;;;;;;;;;;;2095902;28;21143;-86
2023/08/05 04:22:31;;;;;;;;;;;;;;;;;;2085779;28;20285;-86
2023/08/05 04:23:54;;;;;;;;;;;;;;;;;;2079228;28;20365;-85
2023/08/05 04:25:15;;;;;;;;;;;;;;;;;;2070913;28;19913;-84
2023/08/05 04:26:35;;;;;;;;;;;;;;;;;;2080797;28;19921;-84
2023/08/05 04:27:57;;;;;;;;;;;;;;;;;;2079774;28;19920;-86
2023/08/05 04:29:22;;;;;;;;;;;;;;;;;;2086386;28;19909;-86
2023/08/05 04:30:43;;;;;;;;;;;;;;;;;;2084464;28;19909;-86
2023/08/05 04:32:03;;;;;;;;;;;;;;;;;;2075275;28;19909;-86
2023/08/05 04:33:27;;;;;;;;;;;;;;;;;;2071315;28;19916;-87
2023/08/05 04:34:48;;;;;;;;;;;;;;;;;;2073629;28;19909;-86
2023/08/05 04:36:09;;;;;;;;;;;;;;;;;;2075337;28;19917;-86
2023/08/05 04:37:31;;;;;;;;;;;;;;;;;;2075162;28;19920;-86
2023/08/05 04:38:52;;;;;;;;;;;;;;;;;;2083427;28;19975;-85
2023/08/05 04:40:12;;;;;;;;;;;;;;;;;;2088805;28;19916;-84
2023/08/05 04:41:33;;;;;;;;;;;;;;;;;;2083322;28;19912;-86
2023/08/05 04:42:54;;;;;;;;;;;;;;;;;;2079357;28;19913;-87
2023/08/05 04:44:14;;;;;;;;;;;;;;;;;;2084279;28;19909;-86
2023/08/05 04:45:35;;;;;;;;;;;;;;;;;;2082381;28;19944;-86
2023/08/05 04:46:56;;;;;;;;;;;;;;;;;;2083237;28;20368;-87
2023/08/05 04:48:17;;;;;;;;;;;;;;;;;;2088922;28;19909;-87
2023/08/05 04:49:40;;;;;;;;;;;;;;;;;;2076537;28;19910;-86
2023/08/05 04:51:01;;;;;;;;;;;;;;;;;;2095864;28;19917;-86
2023/08/05 04:52:21;;;;;;;;;;;;;;;;;;2092583;28;19916;-86
2023/08/05 04:53:42;;;;;;;;;;;;;;;;;;2080318;28;20373;-86
2023/08/05 04:55:03;;;;;;;;;;;;;;;;;;2080844;28;19917;-86
2023/08/05 04:56:24;;;;;;;;;;;;;;;;;;2079050;28;19924;-83
2023/08/05 04:57:45;;;;;;;;;;;;;;;;;;2087115;28;19910;-86
2023/08/05 04:59:05;;;;;;;;;;;;;;;;;;2082418;28;20004;-86
2023/08/05 05:00:26;;;;;;;;;;;;;;;;;;2080199;28;19980;-86
2023/08/05 05:01:47;;;;;;;;;;;;;;;;;;2089770;28;19909;-85
2023/08/05 05:03:08;;;;;;;;;;;;;;;;;;2090843;28;20243;-86
2023/08/05 05:04:28;;;;;;;;;;;;;;;;;;2092372;28;19920;-85
2023/08/05 05:05:49;;;;;;;;;;;;;;;;;;2081458;28;19909;-86
2023/08/05 05:07:10;;;;;;;;;;;;;;;;;;2089362;28;19917;-85
2023/08/05 05:08:31;;;;;;;;;;;;;;;;;;2081360;28;19916;-87
2023/08/05 05:09:52;;;;;;;;;;;;;;;;;;2081591;28;19984;-84
2023/08/05 05:11:12;;;;;;;;;;;;;;;;;;2078766;28;19909;-85
2023/08/05 05:12:33;;;;;;;;;;;;;;;;;;2085628;28;19913;-86
2023/08/05 05:13:56;;;;;;;;;;;;;;;;;;2073827;28;20411;-86
2023/08/05 05:15:17;;;;;;;;;;;;;;;;;;2073865;28;19909;-84
2023/08/05 05:16:38;;;;;;;;;;;;;;;;;;2071134;28;19926;-86
2023/08/05 05:17:59;;;;;;;;;;;;;;;;;;2072911;28;19916;-85
2023/08/05 05:19:20;;;;;;;;;;;;;;;;;;2075008;28;19917;-84
2023/08/05 05:20:40;;;;;;;;;;;;;;;;;;2075827;28;19920;-85
2023/08/05 05:22:01;;;;;;;;;;;;;;;;;;2071594;28;19913;-86
2023/08/05 05:23:22;;;;;;;;;;;;;;;;;;2082273;28;19917;-86
2023/08/05 05:24:42;;;;;;;;;;;;;;;;;;2082382;28;19924;-87
2023/08/05 05:26:03;;;;;;;;;;;;;;;;;;2084156;28;20380;-84
2023/08/05 05:27:24;;;;;;;;;;;;;;;;;;2082386;28;19921;-85
2023/08/05 05:28:44;;;;;;;;;;;;;;;;;;2083798;28;19916;-84
2023/08/05 05:30:06;;;;;;;;;;;;;;;;;;2088575;28;20303;-85
2023/08/05 05:31:26;;;;;;;;;;;;;;;;;;2078490;28;20292;-86
2023/08/05 05:32:47;;;;;;;;;;;;;;;;;;2075024;28;19913;-86
2023/08/05 05:34:08;;;;;;;;;;;;;;;;;;2075568;28;19909;-87
2023/08/05 05:35:28;;;;;;;;;;;;;;;;;;2075012;28;19910;-86
2023/08/05 05:36:49;;;;;;;;;;;;;;;;;;2074901;28;19933;-85
2023/08/05 05:38:10;;;;;;;;;;;;;;;;;;2074380;28;19910;-86
2023/08/05 05:39:32;;;;;;;;;;;;;;;;;;2083108;28;19947;-85
2023/08/05 05:40:56;;;;;;;;;;;;;;;;;;2082707;28;19921;-87
2023/08/05 05:42:17;;;;;;;;;;;;;;;;;;2080733;28;20448;-87
2023/08/05 05:43:38;;;;;;;;;;;;;;;;;;2079353;28;19917;-86
2023/08/05 05:45:00;;;;;;;;;;;;;;;;;;2079587;28;19909;-85
2023/08/05 05:46:20;;;;;;;;;;;;;;;;;;2079233;28;20330;-85
2023/08/05 05:47:41;;;;;;;;;;;;;;;;;;2078698;28;19913;-86
2023/08/05 05:49:03;;;;;;;;;;;;;;;;;;2080284;28;19909;-87
2023/08/05 05:50:23;;;;;;;;;;;;;;;;;;2079110;28;19928;-85
2023/08/05 05:51:45;;;;;;;;;;;;;;;;;;2079986;28;19912;-87
2023/08/05 05:53:08;;;;;;;;;;;;;;;;;;2078452;28;19913;-87
2023/08/05 05:54:28;;;;;;;;;;;;;;;;;;2081239;28;19916;-87
2023/08/05 05:55:49;;;;;;;;;;;;;;;;;;2087290;28;19916;-85
2023/08/05 05:57:10;;;;;;;;;;;;;;;;;;2083072;28;19976;-86
2023/08/05 05:58:34;;;;;;;;;;;;;;;;;;2082080;28;19929;-86
2023/08/05 05:59:58;;;;;;;;;;;;;;;;;;2083866;28;19909;-81
2023/08/05 06:01:18;;;;;;;;;;;;;;;;;;2072566;28;19940;-86
2023/08/05 06:02:39;;;;;;;;;;;;;;;;;;2075663;28;19909;-83
2023/08/05 06:04:03;;;;;;;;;;;;;;;;;;2073346;28;19921;-86
2023/08/05 06:05:24;;;;;;;;;;;;;;;;;;2076416;28;19909;-86
2023/08/05 06:06:45;;;;;;;;;;;;;;;;;;2073537;28;19914;-86
2023/08/05 06:08:06;;;;;;;;;;;;;;;;;;2079468;28;19916;-86
2023/08/05 06:09:27;;;;;;;;;;;;;;;;;;2083122;28;19914;-86
2023/08/05 06:10:48;;;;;;;;;;;;;;;;;;2085209;28;19909;-86
2023/08/05 06:12:10;;;;;;;;;;;;;;;;;;2081352;28;19909;-85
2023/08/05 06:13:31;;;;;;;;;;;;;;;;;;2073553;28;19980;-86
2023/08/05 06:14:51;;;;;;;;;;;;;;;;;;2071020;28;20229;-86
2023/08/05 06:16:12;;;;;;;;;;;;;;;;;;2075736;28;20388;-86
2023/08/05 06:17:33;;;;;;;;;;;;;;;;;;2074035;28;19918;-85
2023/08/05 06:18:53;;;;;;;;;;;;;;;;;;2074183;28;19913;-86
2023/08/05 06:20:14;;;;;;;;;;;;;;;;;;2074983;28;19909;-85
2023/08/05 06:21:35;;;;;;;;;;;;;;;;;;2081653;28;19910;-85
2023/08/05 06:22:55;;;;;;;;;;;;;;;;;;2081603;28;19917;-85
2023/08/05 06:24:16;;;;;;;;;;;;;;;;;;2079507;28;19908;-86
2023/08/05 06:25:37;;;;;;;;;;;;;;;;;;2075606;28;19924;-85
2023/08/05 06:26:58;;;;;;;;;;;;;;;;;;2073986;28;19917;-85
2023/08/05 06:28:19;;;;;;;;;;;;;;;;;;2075530;28;19910;-85
2023/08/05 06:29:40;;;;;;;;;;;;;;;;;;2082707;28;20276;-86
2023/08/05 06:31:00;;;;;;;;;;;;;;;;;;2080645;28;19917;-82
2023/08/05 06:32:21;;;;;;;;;;;;;;;;;;2074522;28;19909;-86
2023/08/05 06:33:42;;;;;;;;;;;;;;;;;;2077906;28;19917;-86
2023/08/05 06:35:02;;;;;;;;;;;;;;;;;;2082383;28;19909;-85
2023/08/05 06:36:23;;;;;;;;;;;;;;;;;;2083950;28;19921;-86
2023/08/05 06:37:44;;;;;;;;;;;;;;;;;;2081360;28;19982;-85
2023/08/05 06:39:05;;;;;;;;;;;;;;;;;;2081126;28;19916;-85
2023/08/05 06:40:26;;;;;;;;;;;;;;;;;;2081419;28;19913;-85
2023/08/05 06:41:46;;;;;;;;;;;;;;;;;;2083584;28;20349;-85
2023/08/05 06:43:07;;;;;;;;;;;;;;;;;;2083569;28;19909;-85
2023/08/05 06:44:28;;;;;;;;;;;;;;;;;;2083050;28;19920;-85
2023/08/05 06:45:48;;;;;;;;;;;;;;;;;;2082964;28;19909;-85
2023/08/05 06:47:09;;;;;;;;;;;;;;;;;;2079643;28;20019;-85
2023/08/05 06:48:30;;;;;;;;;;;;;;;;;;2076895;28;19909;-84
2023/08/05 06:49:51;;;;;;;;;;;;;;;;;;2073908;28;19916;-83
2023/08/05 06:51:12;;;;;;;;;;;;;;;;;;2076813;28;19916;-85
2023/08/05 06:52:32;;;;;;;;;;;;;;;;;;2074537;28;19916;-84
2023/08/05 06:53:53;;;;;;;;;;;;;;;;;;2073958;28;19917;-83
2023/08/05 06:55:17;;;;;;;;;;;;;;;;;;2071104;28;19918;-84
2023/08/05 06:56:37;;;;;;;;;;;;;;;;;;2076688;28;19917;-84
2023/08/05 06:57:58;;;;;;;;;;;;;;;;;;2082996;28;20296;-85
2023/08/05 06:59:19;;;;;;;;;;;;;;;;;;2083796;28;19909;-85
2023/08/05 07:00:39;;;;;;;;;;;;;;;;;;2083126;28;19910;-87
2023/08/05 07:02:00;;;;;;;;;;;;;;;;;;2084172;28;19916;-85
2023/08/05 07:03:23;;;;;;;;;;;;;;;;;;2080943;28;20360;-86
2023/08/05 07:04:43;;;;;;;;;;;;;;;;;;2081826;28;19917;-86
2023/08/05 07:06:04;;;;;;;;;;;;;;;;;;2087883;28;20292;-86
2023/08/05 07:07:25;;;;;;;;;;;;;;;;;;2091668;28;19924;-84
2023/08/05 07:08:45;;;;;;;;;;;;;;;;;;2089077;28;19909;-85
2023/08/05 07:10:08;;;;;;;;;;;;;;;;;;2081845;28;20292;-85
2023/08/05 07:11:28;;;;;;;;;;;;;;;;;;2079751;28;19909;-85
2023/08/05 07:12:49;;;;;;;;;;;;;;;;;;2081568;28;19909;-83
2023/08/05 07:14:10;;;;;;;;;;;;;;;;;;2083131;28;19909;-86
2023/08/05 07:15:30;;;;;;;;;;;;;;;;;;2084573;28;19909;-85
2023/08/05 07:16:51;;;;;;;;;;;;;;;;;;2079331;28;19939;-84
2023/08/05 07:18:12;;;;;;;;;;;;;;;;;;2080824;28;19968;-84
2023/08/05 07:19:32;;;;;;;;;;;;;;;;;;2080249;28;19909;-85
2023/08/05 07:20:53;;;;;;;;;;;;;;;;;;2080790;28;20556;-84
2023/08/05 07:22:14;;;;;;;;;;;;;;;;;;2085387;28;19936;-85
2023/08/05 07:23:35;;;;;;;;;;;;;;;;;;2081275;28;19924;-82
2023/08/05 07:24:55;;;;;;;;;;;;;;;;;;2078117;28;19932;-82
2023/08/05 07:26:16;;;;;;;;;;;;;;;;;;2088623;28;19932;-84
2023/08/05 07:27:37;;;;;;;;;;;;;;;;;;2080881;28;19917;-83
2023/08/05 07:28:57;;;;;;;;;;;;;;;;;;2084369;28;19932;-82
2023/08/05 07:30:18;;;;;;;;;;;;;;;;;;2081435;28;19917;-84
2023/08/05 07:31:39;;;;;;;;;;;;;;;;;;2079858;28;19909;-84
2023/08/05 07:33:00;;;;;;;;;;;;;;;;;;2088794;28;19908;-84
2023/08/05 07:34:20;;;;;;;;;;;;;;;;;;2083785;28;19955;-84
2023/08/05 07:35:41;;;;;;;;;;;;;;;;;;2080317;28;19909;-85
2023/08/05 07:37:02;;;;;;;;;;;;;;;;;;2079866;28;19914;-84
2023/08/05 07:38:25;;;;;;;;;;;;;;;;;;2080406;28;19909;-82
2023/08/05 07:39:48;;;;;;;;;;;;;;;;;;2084189;28;19913;-82
2023/08/05 07:41:08;;;;;;;;;;;;;;;;;;2082943;28;20391;-82
2023/08/05 07:42:30;;;;;;;;;;;;;;;;;;2079535;28;19968;-82
2023/08/05 07:43:53;;;;;;;;;;;;;;;;;;2080372;28;19913;-82
2023/08/05 07:45:17;;;;;;;;;;;;;;;;;;2083040;28;19920;-82
2023/08/05 07:46:40;;;;;;;;;;;;;;;;;;2085857;28;19932;-82
2023/08/05 07:48:04;;;;;;;;;;;;;;;;;;2079302;28;19920;-84
2023/08/05 07:49:25;;;;;;;;;;;;;;;;;;2081362;28;20411;-83
2023/08/05 07:50:46;;;;;;;;;;;;;;;;;;2078567;28;19916;-82
2023/08/05 07:52:06;;;;;;;;;;;;;;;;;;2079973;28;19916;-81
2023/08/05 07:53:29;;;;;;;;;;;;;;;;;;2078077;28;20431;-82
2023/08/05 07:54:50;;;;;;;;;;;;;;;;;;2082453;28;20304;-80
2023/08/05 07:56:11;;;;;;;;;;;;;;;;;;2082453;28;19909;-80
2023/08/05 07:57:34;;;;;;;;;;;;;;;;;;2073775;28;20013;-82
2023/08/05 07:58:54;;;;;;;;;;;;;;;;;;2075302;28;20258;-81
2023/08/05 08:00:16;;;;;;;;;;;;;;;;;;2073212;28;19988;-79
2023/08/05 08:01:41;;;;;;;;;;;;;;;;;;2085272;28;19936;-80
2023/08/05 08:03:01;;;;;;;;;;;;;;;;;;2091205;28;19909;-80
2023/08/05 08:04:22;;;;;;;;;;;;;;;;;;2091657;28;19924;-81
2023/08/05 08:05:43;;;;;;;;;;;;;;;;;;2087100;28;19916;-80
2023/08/05 08:07:04;;;;;;;;;;;;;;;;;;2088293;28;19913;-81
2023/08/05 08:08:25;;;;;;;;;;;;;;;;;;2087310;28;19916;-80
2023/08/05 08:09:46;;;;;;;;;;;;;;;;;;2089319;28;19909;-80
2023/08/05 08:11:06;;;;;;;;;;;;;;;;;;2087277;28;19916;-80
2023/08/05 08:12:27;;;;;;;;;;;;;;;;;;2088274;28;19912;-81
2023/08/05 08:13:48;;;;;;;;;;;;;;;;;;2090333;28;19909;-81
2023/08/05 08:15:08;;;;;;;;;;;;;;;;;;2091344;28;20090;-81
2023/08/05 08:16:29;;;;;;;;;;;;;;;;;;2087453;28;19988;-81
2023/08/05 08:17:50;;;;;;;;;;;;;;;;;;2087147;28;19925;-81
2023/08/05 08:19:13;;;;;;;;;;;;;;;;;;2086702;28;20015;-81
2023/08/05 08:20:33;;;;;;;;;;;;;;;;;;2088838;28;19913;-81
2023/08/05 08:21:54;;;;;;;;;;;;;;;;;;2079308;28;19913;-80
2023/08/05 08:23:15;;;;;;;;;;;;;;;;;;2082868;28;19920;-81
2023/08/05 08:24:36;;;;;;;;;;;;;;;;;;2082116;28;19917;-81
2023/08/05 08:25:56;;;;;;;;;;;;;;;;;;2082409;28;19909;-80
2023/08/05 08:27:17;;;;;;;;;;;;;;;;;;2081352;28;20284;-80
2023/08/05 08:28:38;;;;;;;;;;;;;;;;;;2079131;28;19936;-81
2023/08/05 08:29:58;;;;;;;;;;;;;;;;;;2087081;28;19920;-80
2023/08/05 08:31:19;;;;;;;;;;;;;;;;;;2082192;28;19909;-81
2023/08/05 08:32:40;;;;;;;;;;;;;;;;;;2077988;28;20350;-81
2023/08/05 08:34:01;;;;;;;;;;;;;;;;;;2074479;28;19917;-80
2023/08/05 08:35:21;;;;;;;;;;;;;;;;;;2082328;28;19912;-81
2023/08/05 08:36:42;;;;;;;;;;;;;;;;;;2076327;28;20289;-81
2023/08/05 08:38:03;;;;;;;;;;;;;;;;;;2082504;28;19925;-80
2023/08/05 08:39:23;;;;;;;;;;;;;;;;;;2076244;28;20380;-81
2023/08/05 08:40:44;;;;;;;;;;;;;;;;;;2074911;28;19917;-80
2023/08/05 08:42:05;;;;;;;;;;;;;;;;;;2074518;28;19917;-80
2023/08/05 08:43:25;;;;;;;;;;;;;;;;;;2080871;28;19920;-81
2023/08/05 08:44:46;;;;;;;;;;;;;;;;;;2079653;28;20454;-80
2023/08/05 08:46:07;;;;;;;;;;;;;;;;;;2080274;28;19909;-80
2023/08/05 08:47:28;;;;;;;;;;;;;;;;;;2078635;28;19987;-79
2023/08/05 08:48:49;;;;;;;;;;;;;;;;;;2087364;28;19909;-80
2023/08/05 08:50:09;;;;;;;;;;;;;;;;;;2081618;28;19975;-81
2023/08/05 08:51:30;;;;;;;;;;;;;;;;;;2083459;28;19916;-80
2023/08/05 08:52:51;;;;;;;;;;;;;;;;;;2080645;28;19916;-80
2023/08/05 08:54:12;;;;;;;;;;;;;;;;;;2080330;28;19963;-79
2023/08/05 08:55:32;;;;;;;;;;;;;;;;;;2070266;28;19917;-81
2023/08/05 08:56:53;;;;;;;;;;;;;;;;;;2085088;28;19921;-81
2023/08/05 08:58:14;;;;;;;;;;;;;;;;;;2081037;28;19928;-79
2023/08/05 08:59:35;;;;;;;;;;;;;;;;;;2079768;28;19917;-80
2023/08/05 09:00:55;;;;;;;;;;;;;;;;;;2078309;28;19920;-80
2023/08/05 09:02:16;;;;;;;;;;;;;;;;;;2071386;28;19910;-80
2023/08/05 09:03:37;;;;;;;;;;;;;;;;;;2069929;28;19919;-79
2023/08/05 09:04:57;;;;;;;;;;;;;;;;;;2070589;28;20352;-79
2023/08/05 09:06:18;;;;;;;;;;;;;;;;;;2074298;28;19917;-80
2023/08/05 09:07:39;;;;;;;;;;;;;;;;;;2072918;28;19929;-79
2023/08/05 09:08:59;;;;;;;;;;;;;;;;;;2074138;28;19910;-79
2023/08/05 09:10:22;;;;;;;;;;;;;;;;;;2073522;28;19916;-79
2023/08/05 09:11:42;;;;;;;;;;;;;;;;;;2071431;28;19914;-78
2023/08/05 09:13:03;;;;;;;;;;;;;;;;;;2073428;28;19940;-79